Airport ID:KVUF
Update Time (UTC):05/12/2020 02:18
Wind Speed (Knots):3
Wind Direction (Magnetic):280
Temperature (°C):0
Dew Point (°C):-5
Humidity (%):67
Altimeter (inHg):30.23
Density Altitude (Feet):
Visibility:10+
Clouds (Hundreds of feet):CLR
Present Weather:
METAR:METAR KVUF 050215Z AUTO 27005KT 10SM CLR M00/M05 A3023 RMK A01

The data displayed is for advisory purposes only and is not to be used for flight planning or operations.